createdAt,value
2023-02-27T00:05:44.521Z,102148.17
2023-02-27T00:11:47.915Z,102146.39
2023-02-27T00:17:51.545Z,102140.96
2023-02-27T00:23:47.972Z,102148.30
2023-02-27T00:29:51.526Z,102154.19
2023-02-27T00:35:54.897Z,102158.53
2023-02-27T00:41:58.388Z,102153.42
2023-02-27T00:48:01.792Z,102151.76
2023-02-27T00:54:05.467Z,102152.08
2023-02-27T01:00:08.879Z,102148.52
2023-02-27T01:06:12.446Z,102141.24
2023-02-27T01:12:15.838Z,102137.63
2023-02-27T01:18:19.372Z,102134.74
2023-02-27T01:24:12.807Z,102137.30
2023-02-27T01:30:16.193Z,102133.64
2023-02-27T01:36:19.696Z,102134.39
2023-02-27T01:42:23.147Z,102132.11
2023-02-27T01:48:26.803Z,102127.97
2023-02-27T01:54:30.292Z,102126.46
2023-02-27T02:00:36.574Z,102126.76
2023-02-27T02:06:30.491Z,102132.34
2023-02-27T02:12:33.871Z,102132.81
2023-02-27T02:18:55.255Z,102128.74
2023-02-27T02:25:19.956Z,102129.68
2023-02-27T02:31:29.692Z,102125.15
2023-02-27T02:37:51.827Z,102135.13
2023-02-27T02:43:55.187Z,102141.91
2023-02-27T02:50:14.006Z,102144.10
2023-02-27T02:56:32.662Z,102151.20
2023-02-27T03:02:36.070Z,102161.45
2023-02-27T03:08:48.456Z,102161.67
2023-02-27T03:14:47.447Z,102167.67
2023-02-27T03:20:53.458Z,102172.39
2023-02-27T03:27:00.134Z,102182.17
2023-02-27T03:33:03.512Z,102188.98
2023-02-27T03:39:09.737Z,102191.83
2023-02-27T03:45:31.624Z,102196.05
2023-02-27T03:51:35.060Z,102195.48
2023-02-27T03:57:41.203Z,102207.66
2023-02-27T04:03:44.654Z,102207.24
2023-02-27T04:09:48.054Z,102205.05
2023-02-27T04:15:51.643Z,102212.80
2023-02-27T04:22:01.169Z,102224.61
2023-02-27T04:28:32.458Z,102227.36
2023-02-27T04:34:47.900Z,102231.76
2023-02-27T04:41:10.102Z,102233.23
2023-02-27T04:47:13.497Z,102236.45
2023-02-27T04:53:19.617Z,102239.01
2023-02-27T04:59:25.646Z,102235.98
2023-02-27T05:04:50.036Z,102232.14
2023-02-27T05:10:45.636Z,102232.15
2023-02-27T05:16:36.212Z,102230.95
2023-02-27T05:23:10.055Z,102232.39
2023-02-27T05:29:22.796Z,102234.04
2023-02-27T05:35:18.115Z,102234.70
2023-02-27T05:41:24.618Z,102242.08
2023-02-27T05:47:27.009Z,102250.20
2023-02-27T05:53:23.197Z,102263.70
2023-02-27T05:59:26.669Z,102263.42
2023-02-27T06:05:30.294Z,102270.78
2023-02-27T06:11:33.815Z,102272.73
2023-02-27T06:17:37.269Z,102278.54
2023-02-27T06:23:22.923Z,102289.29
2023-02-27T06:29:09.200Z,102303.58
2023-02-27T06:35:05.366Z,102299.59
2023-02-27T06:41:08.913Z,102303.57
2023-02-27T06:46:37.648Z,102302.43
2023-02-27T06:52:23.133Z,102311.91
2023-02-27T06:58:29.518Z,102318.06
2023-02-27T07:04:32.944Z,102324.27
2023-02-27T07:10:36.632Z,102345.11
2023-02-27T07:16:32.875Z,102358.48
2023-02-27T07:22:36.408Z,102362.17
2023-02-27T07:28:22.026Z,102365.27
2023-02-27T07:34:19.823Z,102367.60
2023-02-27T07:39:53.551Z,102375.59
2023-02-27T07:45:57.327Z,102377.35
2023-02-27T07:51:43.914Z,102374.91
2023-02-27T07:57:47.364Z,102372.04
2023-02-27T08:03:43.535Z,102376.31
2023-02-27T08:09:46.907Z,102378.40
2023-02-27T08:15:50.542Z,102376.62
2023-02-27T08:21:53.961Z,102381.08
2023-02-27T08:27:57.420Z,102389.63
2023-02-27T08:33:58.076Z,102394.20
2023-02-27T08:39:31.016Z,102396.53
2023-02-27T08:45:34.679Z,102398.31
2023-02-27T08:51:31.099Z,102396.96
2023-02-27T08:57:27.389Z,102400.70
2023-02-27T09:02:53.899Z,102404.43
2023-02-27T09:08:47.410Z,102402.78
2023-02-27T09:14:34.877Z,102394.55
2023-02-27T09:20:05.197Z,102394.30
2023-02-27T09:26:01.604Z,102400.13
2023-02-27T09:31:40.606Z,102396.94
2023-02-27T09:37:26.884Z,102405.40
2023-02-27T09:43:04.056Z,102413.43
2023-02-27T09:49:17.270Z,102414.31
2023-02-27T09:55:03.535Z,102421.32
2023-02-27T10:01:08.070Z,102423.23
2023-02-27T10:07:20.541Z,102425.98
2023-02-27T10:13:26.481Z,102431.86
2023-02-27T10:19:20.635Z,102436.44
2023-02-27T10:25:30.350Z,102442.96
2023-02-27T10:31:35.043Z,102441.29
2023-02-27T10:37:38.530Z,102443.36
2023-02-27T10:43:32.017Z,102446.71
2023-02-27T10:49:14.029Z,102445.61
2023-02-27T10:54:29.453Z,102453.93
2023-02-27T11:00:26.309Z,102456.70
2023-02-27T11:06:35.558Z,102454.90
2023-02-27T11:12:14.701Z,102452.10
2023-02-27T11:17:51.853Z,102456.48
2023-02-27T11:24:04.611Z,102451.09
2023-02-27T11:29:29.104Z,102439.89
2023-02-27T11:35:25.340Z,102438.15
2023-02-27T11:41:01.061Z,102441.05
2023-02-27T11:47:04.514Z,102433.76
2023-02-27T11:53:28.382Z,102436.11
2023-02-27T11:59:34.416Z,102433.83
2023-02-27T12:05:07.701Z,102428.42
2023-02-27T12:11:20.273Z,102422.67
2023-02-27T12:17:03.430Z,102418.36
2023-02-27T12:23:09.599Z,102425.04
2023-02-27T12:29:31.691Z,102425.17
2023-02-27T12:35:39.730Z,102425.39
2023-02-27T12:41:58.380Z,102425.97
2023-02-27T12:47:52.783Z,102417.67
2023-02-27T12:53:23.170Z,102413.09
2023-02-27T12:59:30.585Z,102420.47
2023-02-27T13:05:39.986Z,102418.14
2023-02-27T13:11:42.110Z,102421.26
2023-02-27T13:17:45.637Z,102421.77
2023-02-27T13:23:48.556Z,102423.09
2023-02-27T13:29:03.088Z,102419.89
2023-02-27T13:34:43.293Z,102416.11
2023-02-27T13:40:01.495Z,102416.30
2023-02-27T13:45:48.098Z,102417.08
2023-02-27T13:51:01.538Z,102417.90
2023-02-27T13:57:00.618Z,102412.79
2023-02-27T14:02:40.257Z,102419.94
2023-02-27T14:08:35.057Z,102422.63
2023-02-27T14:14:16.007Z,102417.80
2023-02-27T14:20:19.287Z,102427.77
2023-02-27T14:25:52.208Z,102430.34
2023-02-27T14:31:22.847Z,102429.30
2023-02-27T14:36:54.080Z,102430.05
2023-02-27T14:42:36.020Z,102429.81
2023-02-27T14:48:12.746Z,102438.20
2023-02-27T14:53:36.419Z,102443.59
2023-02-27T14:59:10.755Z,102449.48
2023-02-27T15:04:33.960Z,102447.48
2023-02-27T15:10:25.155Z,102449.11
2023-02-27T15:16:16.601Z,102452.27
2023-02-27T15:21:36.815Z,102455.02
2023-02-27T15:27:07.299Z,102459.50
2023-02-27T15:32:45.586Z,102455.09
2023-02-27T15:38:06.814Z,102452.14
2023-02-27T15:43:30.098Z,102459.23
2023-02-27T15:49:01.060Z,102459.70
2023-02-27T15:54:42.818Z,102465.27
2023-02-27T16:00:23.609Z,102470.55
2023-02-27T16:06:03.660Z,102479.06
2023-02-27T16:11:47.008Z,102483.75
2023-02-27T16:18:08.587Z,102486.34
2023-02-27T16:24:18.342Z,102486.06
2023-02-27T16:30:05.104Z,102486.55
2023-02-27T16:36:07.207Z,102490.38
2023-02-27T16:42:10.710Z,102495.18
2023-02-27T16:48:14.429Z,102501.23
2023-02-27T16:54:00.455Z,102505.71
2023-02-27T16:59:58.374Z,102504.58
2023-02-27T17:05:52.315Z,102503.52
2023-02-27T17:11:30.586Z,102509.39
2023-02-27T17:17:33.969Z,102511.92
2023-02-27T17:23:24.822Z,102514.70
2023-02-27T17:29:22.008Z,102518.68
2023-02-27T17:35:25.698Z,102520.45
2023-02-27T17:41:29.149Z,102520.59
2023-02-27T17:47:32.579Z,102522.86
2023-02-27T17:53:44.554Z,102525.56
2023-02-27T17:59:48.100Z,102528.43
2023-02-27T18:05:51.907Z,102530.06
2023-02-27T18:11:55.298Z,102535.35
2023-02-27T18:17:58.855Z,102531.56
2023-02-27T18:24:02.247Z,102531.14
2023-02-27T18:30:05.658Z,102531.10
2023-02-27T18:36:09.153Z,102532.66
2023-02-27T18:42:12.765Z,102537.97
2023-02-27T18:48:16.162Z,102543.73
2023-02-27T18:54:18.613Z,102547.37
2023-02-27T19:00:21.991Z,102553.02
2023-02-27T19:06:25.464Z,102556.42
2023-02-27T19:12:28.837Z,102558.07
2023-02-27T19:18:32.352Z,102562.88
2023-02-27T19:24:35.744Z,102567.41
2023-02-27T19:30:39.260Z,102566.01
2023-02-27T19:36:51.469Z,102563.93
2023-02-27T19:42:55.058Z,102569.27
2023-02-27T19:48:58.458Z,102568.59
2023-02-27T19:55:01.101Z,102575.08
2023-02-27T20:01:07.469Z,102571.52
2023-02-27T20:07:17.138Z,102574.25
2023-02-27T20:13:20.662Z,102568.06
2023-02-27T20:19:24.245Z,102578.90
2023-02-27T20:25:27.604Z,102576.23
2023-02-27T20:31:27.937Z,102579.08
2023-02-27T20:37:32.474Z,102583.55
2023-02-27T20:43:36.478Z,102580.58
2023-02-27T20:49:39.852Z,102579.60
2023-02-27T20:55:43.375Z,102579.25
2023-02-27T21:01:49.507Z,102582.36
2023-02-27T21:07:53.741Z,102584.98
2023-02-27T21:13:57.113Z,102587.09
2023-02-27T21:20:00.865Z,102586.50
2023-02-27T21:25:55.570Z,102588.77
2023-02-27T21:31:59.149Z,102590.08
2023-02-27T21:38:02.615Z,102594.30
2023-02-27T21:44:06.323Z,102590.75
2023-02-27T21:50:09.757Z,102589.77
2023-02-27T21:56:13.280Z,102587.98
2023-02-27T22:02:19.630Z,102589.23
2023-02-27T22:08:23.392Z,102585.40
2023-02-27T22:14:26.808Z,102585.44
2023-02-27T22:20:30.245Z,102586.42
2023-02-27T22:26:39.368Z,102590.52
2023-02-27T22:32:42.829Z,102591.11
2023-02-27T22:38:46.214Z,102596.38
2023-02-27T22:44:49.779Z,102601.73
2023-02-27T22:50:53.261Z,102601.88
2023-02-27T22:56:57.850Z,102605.73
2023-02-27T23:03:00.116Z,102609.64
2023-02-27T23:09:03.665Z,102610.79
2023-02-27T23:15:00.846Z,102619.32
2023-02-27T23:21:04.324Z,102619.69
2023-02-27T23:27:24.609Z,102627.58
2023-02-27T23:33:29.167Z,102635.54
2023-02-27T23:39:32.689Z,102631.92
2023-02-27T23:45:29.439Z,102634.80
2023-02-27T23:51:33.435Z,102633.89
2023-02-27T23:57:37.027Z,102637.17
